sensor_id;sensor_type;location;lat;lon;timestamp;temperature;humidity
12700;DHT22;6414;49.570;6.060;2022-09-13T00:01:36;13.50;99.90
12700;DHT22;6414;49.570;6.060;2022-09-13T00:04:21;13.50;99.90
12700;DHT22;6414;49.570;6.060;2022-09-13T00:07:06;13.70;99.90
12700;DHT22;6414;49.570;6.060;2022-09-13T00:09:51;14.00;99.90
12700;DHT22;6414;49.570;6.060;2022-09-13T00:12:37;14.20;99.90
12700;DHT22;6414;49.570;6.060;2022-09-13T00:15:22;14.20;99.90
12700;DHT22;6414;49.570;6.060;2022-09-13T00:18:08;14.20;99.90
12700;DHT22;6414;49.570;6.060;2022-09-13T00:21:02;14.40;99.90
12700;DHT22;6414;49.570;6.060;2022-09-13T00:23:39;14.40;99.90
12700;DHT22;6414;49.570;6.060;2022-09-13T00:26:25;14.40;99.90
12700;DHT22;6414;49.570;6.060;2022-09-13T00:29:09;14.50;99.90
12700;DHT22;6414;49.570;6.060;2022-09-13T00:31:55;14.40;99.90
12700;DHT22;6414;49.570;6.060;2022-09-13T00:34:40;14.40;99.90
12700;DHT22;6414;49.570;6.060;2022-09-13T00:37:25;14.30;99.90
12700;DHT22;6414;49.570;6.060;2022-09-13T00:40:11;14.30;99.90
12700;DHT22;6414;49.570;6.060;2022-09-13T00:42:56;14.40;99.90
12700;DHT22;6414;49.570;6.060;2022-09-13T00:45:41;14.40;99.90
12700;DHT22;6414;49.570;6.060;2022-09-13T00:48:27;14.60;99.90
12700;DHT22;6414;49.570;6.060;2022-09-13T00:51:12;14.70;99.90
12700;DHT22;6414;49.570;6.060;2022-09-13T00:53:58;14.70;99.90
12700;DHT22;6414;49.570;6.060;2022-09-13T00:56:44;14.40;99.90
12700;DHT22;6414;49.570;6.060;2022-09-13T00:59:31;14.50;99.90
12700;DHT22;6414;49.570;6.060;2022-09-13T01:02:14;14.50;99.90
12700;DHT22;6414;49.570;6.060;2022-09-13T01:05:00;14.10;99.90
12700;DHT22;6414;49.570;6.060;2022-09-13T01:07:45;14.00;99.90
12700;DHT22;6414;49.570;6.060;2022-09-13T01:10:30;13.80;99.90
12700;DHT22;6414;49.570;6.060;2022-09-13T01:13:19;13.60;99.90
12700;DHT22;6414;49.570;6.060;2022-09-13T01:16:04;13.60;99.90
12700;DHT22;6414;49.570;6.060;2022-09-13T01:18:50;13.60;99.90
12700;DHT22;6414;49.570;6.060;2022-09-13T01:22:01;13.80;99.90
12700;DHT22;6414;49.570;6.060;2022-09-13T01:24:53;14.00;99.90
12700;DHT22;6414;49.570;6.060;2022-09-13T01:30:46;14.10;99.90
12700;DHT22;6414;49.570;6.060;2022-09-13T01:33:33;14.20;99.90
12700;DHT22;6414;49.570;6.060;2022-09-13T01:42:21;14.10;99.90
12700;DHT22;6414;49.570;6.060;2022-09-13T01:48:21;14.00;99.90
12700;DHT22;6414;49.570;6.060;2022-09-13T01:51:10;14.10;99.90
12700;DHT22;6414;49.570;6.060;2022-09-13T01:57:04;13.50;99.90
12700;DHT22;6414;49.570;6.060;2022-09-13T02:05:38;13.20;99.90
12700;DHT22;6414;49.570;6.060;2022-09-13T02:08:30;13.20;99.90
12700;DHT22;6414;49.570;6.060;2022-09-13T02:11:11;13.50;99.90
12700;DHT22;6414;49.570;6.060;2022-09-13T02:14:11;13.70;99.90
12700;DHT22;6414;49.570;6.060;2022-09-13T02:19:52;13.80;99.90
12700;DHT22;6414;49.570;6.060;2022-09-13T02:22:35;13.80;99.90
12700;DHT22;6414;49.570;6.060;2022-09-13T02:25:19;13.90;99.90
12700;DHT22;6414;49.570;6.060;2022-09-13T02:28:04;13.70;99.90
12700;DHT22;6414;49.570;6.060;2022-09-13T02:30:50;13.70;99.90
12700;DHT22;6414;49.570;6.060;2022-09-13T02:33:42;13.60;99.90
12700;DHT22;6414;49.570;6.060;2022-09-13T02:36:27;13.50;99.90
12700;DHT22;6414;49.570;6.060;2022-09-13T02:39:15;13.40;99.90
12700;DHT22;6414;49.570;6.060;2022-09-13T02:42:03;13.40;99.90
12700;DHT22;6414;49.570;6.060;2022-09-13T02:44:53;13.40;99.90
12700;DHT22;6414;49.570;6.060;2022-09-13T02:47:49;13.40;99.90
12700;DHT22;6414;49.570;6.060;2022-09-13T02:53:38;13.60;99.90
12700;DHT22;6414;49.570;6.060;2022-09-13T02:56:38;13.60;99.90
12700;DHT22;6414;49.570;6.060;2022-09-13T02:59:20;13.50;99.90
12700;DHT22;6414;49.570;6.060;2022-09-13T03:02:13;13.30;99.90
12700;DHT22;6414;49.570;6.060;2022-09-13T03:04:59;13.20;99.90
12700;DHT22;6414;49.570;6.060;2022-09-13T03:07:44;13.20;99.90
12700;DHT22;6414;49.570;6.060;2022-09-13T03:10:33;13.20;99.90
12700;DHT22;6414;49.570;6.060;2022-09-13T03:13:19;13.20;99.90
12700;DHT22;6414;49.570;6.060;2022-09-13T03:19:24;13.30;99.90
12700;DHT22;6414;49.570;6.060;2022-09-13T03:25:25;13.40;99.90
12700;DHT22;6414;49.570;6.060;2022-09-13T03:28:27;13.60;99.90
12700;DHT22;6414;49.570;6.060;2022-09-13T03:31:14;13.70;99.90
12700;DHT22;6414;49.570;6.060;2022-09-13T03:34:10;13.80;99.90
12700;DHT22;6414;49.570;6.060;2022-09-13T03:37:07;13.80;99.90
12700;DHT22;6414;49.570;6.060;2022-09-13T03:39:58;13.90;99.90
12700;DHT22;6414;49.570;6.060;2022-09-13T03:42:49;13.90;99.90
12700;DHT22;6414;49.570;6.060;2022-09-13T03:45:34;14.00;99.90
12700;DHT22;6414;49.570;6.060;2022-09-13T03:48:18;14.00;99.90
12700;DHT22;6414;49.570;6.060;2022-09-13T03:51:06;14.10;99.90
12700;DHT22;6414;49.570;6.060;2022-09-13T03:53:54;14.20;99.90
12700;DHT22;6414;49.570;6.060;2022-09-13T03:56:39;14.30;99.90
12700;DHT22;6414;49.570;6.060;2022-09-13T03:59:24;14.40;99.90
12700;DHT22;6414;49.570;6.060;2022-09-13T04:02:10;14.50;99.90
12700;DHT22;6414;49.570;6.060;2022-09-13T04:04:55;14.10;99.90
12700;DHT22;6414;49.570;6.060;2022-09-13T04:07:41;14.10;99.90
12700;DHT22;6414;49.570;6.060;2022-09-13T04:10:27;13.90;99.90
12700;DHT22;6414;49.570;6.060;2022-09-13T04:13:11;13.90;99.90
12700;DHT22;6414;49.570;6.060;2022-09-13T04:16:00;14.20;99.90
12700;DHT22;6414;49.570;6.060;2022-09-13T04:18:48;14.20;99.90
12700;DHT22;6414;49.570;6.060;2022-09-13T04:21:33;14.20;99.90
12700;DHT22;6414;49.570;6.060;2022-09-13T04:24:19;14.30;99.90
12700;DHT22;6414;49.570;6.060;2022-09-13T04:27:05;14.30;99.90
12700;DHT22;6414;49.570;6.060;2022-09-13T04:29:50;14.40;99.90
12700;DHT22;6414;49.570;6.060;2022-09-13T04:32:36;14.30;99.90
12700;DHT22;6414;49.570;6.060;2022-09-13T04:35:22;14.10;99.90
12700;DHT22;6414;49.570;6.060;2022-09-13T04:38:07;14.10;99.90
12700;DHT22;6414;49.570;6.060;2022-09-13T04:40:55;14.30;99.90
12700;DHT22;6414;49.570;6.060;2022-09-13T04:43:41;14.50;99.90
12700;DHT22;6414;49.570;6.060;2022-09-13T04:46:27;14.50;99.90
12700;DHT22;6414;49.570;6.060;2022-09-13T04:49:12;14.60;99.90
12700;DHT22;6414;49.570;6.060;2022-09-13T04:51:57;14.70;99.90
12700;DHT22;6414;49.570;6.060;2022-09-13T04:54:43;14.60;99.90
12700;DHT22;6414;49.570;6.060;2022-09-13T04:57:28;14.30;99.90
12700;DHT22;6414;49.570;6.060;2022-09-13T05:00:14;14.10;99.90
12700;DHT22;6414;49.570;6.060;2022-09-13T05:02:59;14.10;99.90
12700;DHT22;6414;49.570;6.060;2022-09-13T05:05:44;14.20;99.90
12700;DHT22;6414;49.570;6.060;2022-09-13T05:08:30;14.30;99.90
12700;DHT22;6414;49.570;6.060;2022-09-13T05:11:15;14.30;99.90
12700;DHT22;6414;49.570;6.060;2022-09-13T05:14:01;14.50;99.90
12700;DHT22;6414;49.570;6.060;2022-09-13T05:16:46;14.50;99.90
12700;DHT22;6414;49.570;6.060;2022-09-13T05:19:32;14.50;99.90
12700;DHT22;6414;49.570;6.060;2022-09-13T05:22:17;14.50;99.90
12700;DHT22;6414;49.570;6.060;2022-09-13T05:25:02;14.50;99.90
12700;DHT22;6414;49.570;6.060;2022-09-13T05:27:47;14.40;99.90
12700;DHT22;6414;49.570;6.060;2022-09-13T05:30:32;13.90;99.90
12700;DHT22;6414;49.570;6.060;2022-09-13T05:33:18;14.00;99.90
12700;DHT22;6414;49.570;6.060;2022-09-13T05:36:04;14.30;99.90
12700;DHT22;6414;49.570;6.060;2022-09-13T05:38:49;14.40;99.90
12700;DHT22;6414;49.570;6.060;2022-09-13T05:41:38;14.50;99.90
12700;DHT22;6414;49.570;6.060;2022-09-13T05:44:23;14.50;99.90
12700;DHT22;6414;49.570;6.060;2022-09-13T05:47:08;14.40;99.90
12700;DHT22;6414;49.570;6.060;2022-09-13T05:49:54;14.40;99.90
12700;DHT22;6414;49.570;6.060;2022-09-13T05:52:39;14.50;99.90
12700;DHT22;6414;49.570;6.060;2022-09-13T05:55:24;14.60;99.90
12700;DHT22;6414;49.570;6.060;2022-09-13T05:58:10;14.70;99.90
12700;DHT22;6414;49.570;6.060;2022-09-13T06:00:56;14.80;99.90
12700;DHT22;6414;49.570;6.060;2022-09-13T06:03:41;15.00;99.90
12700;DHT22;6414;49.570;6.060;2022-09-13T06:06:26;15.10;99.90
12700;DHT22;6414;49.570;6.060;2022-09-13T06:09:12;15.20;99.90
12700;DHT22;6414;49.570;6.060;2022-09-13T06:11:57;15.30;99.90
12700;DHT22;6414;49.570;6.060;2022-09-13T06:14:42;15.00;99.90
12700;DHT22;6414;49.570;6.060;2022-09-13T06:17:28;15.00;99.90
12700;DHT22;6414;49.570;6.060;2022-09-13T06:20:13;15.10;99.90
12700;DHT22;6414;49.570;6.060;2022-09-13T06:22:59;15.20;99.90
12700;DHT22;6414;49.570;6.060;2022-09-13T06:25:44;15.30;99.90
12700;DHT22;6414;49.570;6.060;2022-09-13T06:28:29;15.50;99.90
12700;DHT22;6414;49.570;6.060;2022-09-13T06:31:15;15.50;99.90
12700;DHT22;6414;49.570;6.060;2022-09-13T06:34:00;15.50;99.90
12700;DHT22;6414;49.570;6.060;2022-09-13T06:36:45;15.50;99.90
12700;DHT22;6414;49.570;6.060;2022-09-13T06:39:31;15.50;99.90
12700;DHT22;6414;49.570;6.060;2022-09-13T06:42:16;15.40;99.90
12700;DHT22;6414;49.570;6.060;2022-09-13T06:45:02;15.40;99.90
12700;DHT22;6414;49.570;6.060;2022-09-13T06:47:46;15.40;99.90
12700;DHT22;6414;49.570;6.060;2022-09-13T06:50:32;15.40;99.90
12700;DHT22;6414;49.570;6.060;2022-09-13T06:53:18;15.50;99.90
12700;DHT22;6414;49.570;6.060;2022-09-13T06:56:11;15.60;99.90
12700;DHT22;6414;49.570;6.060;2022-09-13T06:58:56;15.70;99.90
12700;DHT22;6414;49.570;6.060;2022-09-13T07:01:41;15.70;99.90
12700;DHT22;6414;49.570;6.060;2022-09-13T07:04:25;15.80;99.90
12700;DHT22;6414;49.570;6.060;2022-09-13T07:07:11;15.90;99.90
12700;DHT22;6414;49.570;6.060;2022-09-13T07:09:57;15.90;99.90
12700;DHT22;6414;49.570;6.060;2022-09-13T07:12:42;16.00;99.90
12700;DHT22;6414;49.570;6.060;2022-09-13T07:15:27;16.00;99.90
12700;DHT22;6414;49.570;6.060;2022-09-13T07:18:12;16.00;99.90
12700;DHT22;6414;49.570;6.060;2022-09-13T07:21:08;16.10;99.90
12700;DHT22;6414;49.570;6.060;2022-09-13T07:23:53;16.20;99.90
12700;DHT22;6414;49.570;6.060;2022-09-13T07:26:38;16.30;99.90
12700;DHT22;6414;49.570;6.060;2022-09-13T07:29:23;16.40;99.90
12700;DHT22;6414;49.570;6.060;2022-09-13T07:32:09;16.50;99.90
12700;DHT22;6414;49.570;6.060;2022-09-13T07:34:55;16.50;99.90
12700;DHT22;6414;49.570;6.060;2022-09-13T07:37:40;16.60;99.90
12700;DHT22;6414;49.570;6.060;2022-09-13T07:40:26;16.60;99.90
12700;DHT22;6414;49.570;6.060;2022-09-13T07:43:11;16.70;99.90
12700;DHT22;6414;49.570;6.060;2022-09-13T07:46:03;16.80;99.90
12700;DHT22;6414;49.570;6.060;2022-09-13T07:48:44;16.80;99.90
12700;DHT22;6414;49.570;6.060;2022-09-13T07:51:31;16.70;99.90
12700;DHT22;6414;49.570;6.060;2022-09-13T07:54:16;16.70;99.90
12700;DHT22;6414;49.570;6.060;2022-09-13T07:57:00;16.80;99.90
12700;DHT22;6414;49.570;6.060;2022-09-13T07:59:45;16.90;99.90
12700;DHT22;6414;49.570;6.060;2022-09-13T08:02:31;16.90;99.90
12700;DHT22;6414;49.570;6.060;2022-09-13T08:05:16;16.90;99.90
12700;DHT22;6414;49.570;6.060;2022-09-13T08:08:01;17.00;99.90
12700;DHT22;6414;49.570;6.060;2022-09-13T08:10:47;17.10;99.90
12700;DHT22;6414;49.570;6.060;2022-09-13T08:13:32;17.20;99.90
12700;DHT22;6414;49.570;6.060;2022-09-13T08:16:18;17.30;99.90
12700;DHT22;6414;49.570;6.060;2022-09-13T08:19:04;17.40;99.90
12700;DHT22;6414;49.570;6.060;2022-09-13T08:21:48;17.50;99.90
12700;DHT22;6414;49.570;6.060;2022-09-13T08:24:34;17.60;99.90
12700;DHT22;6414;49.570;6.060;2022-09-13T08:27:19;17.70;99.90
12700;DHT22;6414;49.570;6.060;2022-09-13T08:30:04;17.90;99.90
12700;DHT22;6414;49.570;6.060;2022-09-13T08:32:50;17.90;99.90
12700;DHT22;6414;49.570;6.060;2022-09-13T08:35:35;18.10;99.90
12700;DHT22;6414;49.570;6.060;2022-09-13T08:38:20;18.20;99.90
12700;DHT22;6414;49.570;6.060;2022-09-13T08:41:19;18.30;99.90
12700;DHT22;6414;49.570;6.060;2022-09-13T08:44:04;18.30;99.90
12700;DHT22;6414;49.570;6.060;2022-09-13T08:46:48;18.60;99.90
12700;DHT22;6414;49.570;6.060;2022-09-13T08:49:34;18.60;99.90
12700;DHT22;6414;49.570;6.060;2022-09-13T08:52:34;18.70;99.90
12700;DHT22;6414;49.570;6.060;2022-09-13T08:55:22;18.60;99.90
12700;DHT22;6414;49.570;6.060;2022-09-13T08:58:21;18.70;99.90
12700;DHT22;6414;49.570;6.060;2022-09-13T09:01:11;18.80;99.90
12700;DHT22;6414;49.570;6.060;2022-09-13T09:06:47;18.70;99.90
12700;DHT22;6414;49.570;6.060;2022-09-13T09:09:34;18.50;99.90
12700;DHT22;6414;49.570;6.060;2022-09-13T09:15:29;18.40;99.90
12700;DHT22;6414;49.570;6.060;2022-09-13T09:18:20;18.40;99.90
12700;DHT22;6414;49.570;6.060;2022-09-13T09:21:06;18.50;99.90
12700;DHT22;6414;49.570;6.060;2022-09-13T09:23:54;18.60;99.90
12700;DHT22;6414;49.570;6.060;2022-09-13T09:26:39;18.60;99.90
12700;DHT22;6414;49.570;6.060;2022-09-13T09:29:30;18.80;99.90
12700;DHT22;6414;49.570;6.060;2022-09-13T09:41:15;19.10;99.90
12700;DHT22;6414;49.570;6.060;2022-09-13T09:44:09;19.20;99.90
12700;DHT22;6414;49.570;6.060;2022-09-13T09:46:54;19.30;99.90
12700;DHT22;6414;49.570;6.060;2022-09-13T09:49:39;19.30;99.90
12700;DHT22;6414;49.570;6.060;2022-09-13T09:55:58;19.50;99.90
12700;DHT22;6414;49.570;6.060;2022-09-13T09:58:43;19.60;99.90
12700;DHT22;6414;49.570;6.060;2022-09-13T10:01:31;19.60;99.90
12700;DHT22;6414;49.570;6.060;2022-09-13T10:04:19;19.60;99.90
12700;DHT22;6414;49.570;6.060;2022-09-13T10:07:18;19.70;99.90
12700;DHT22;6414;49.570;6.060;2022-09-13T10:10:04;19.80;99.90
12700;DHT22;6414;49.570;6.060;2022-09-13T10:12:51;19.80;99.90
12700;DHT22;6414;49.570;6.060;2022-09-13T10:15:34;20.00;99.90
12700;DHT22;6414;49.570;6.060;2022-09-13T10:18:21;20.20;99.90
12700;DHT22;6414;49.570;6.060;2022-09-13T10:21:06;20.50;99.90
12700;DHT22;6414;49.570;6.060;2022-09-13T10:23:51;20.70;99.90
12700;DHT22;6414;49.570;6.060;2022-09-13T10:26:36;20.60;99.90
12700;DHT22;6414;49.570;6.060;2022-09-13T10:29:21;20.50;99.90
12700;DHT22;6414;49.570;6.060;2022-09-13T10:32:07;20.40;99.90
12700;DHT22;6414;49.570;6.060;2022-09-13T10:34:51;20.50;99.90
12700;DHT22;6414;49.570;6.060;2022-09-13T10:37:37;20.50;99.90
12700;DHT22;6414;49.570;6.060;2022-09-13T10:40:26;20.50;99.90
12700;DHT22;6414;49.570;6.060;2022-09-13T10:43:12;20.60;99.90
12700;DHT22;6414;49.570;6.060;2022-09-13T10:45:55;20.60;99.90
12700;DHT22;6414;49.570;6.060;2022-09-13T10:48:44;20.70;99.90
12700;DHT22;6414;49.570;6.060;2022-09-13T10:51:33;20.80;99.90
12700;DHT22;6414;49.570;6.060;2022-09-13T10:54:18;21.00;99.90
12700;DHT22;6414;49.570;6.060;2022-09-13T10:57:02;20.90;99.90
12700;DHT22;6414;49.570;6.060;2022-09-13T10:59:51;20.90;99.90
12700;DHT22;6414;49.570;6.060;2022-09-13T11:15:00;21.20;99.90
12700;DHT22;6414;49.570;6.060;2022-09-13T11:26:38;21.40;99.90
12700;DHT22;6414;49.570;6.060;2022-09-13T11:29:40;21.50;99.90
12700;DHT22;6414;49.570;6.060;2022-09-13T11:32:43;21.80;99.90
12700;DHT22;6414;49.570;6.060;2022-09-13T11:35:33;21.80;99.90
12700;DHT22;6414;49.570;6.060;2022-09-13T11:47:40;22.80;99.90
12700;DHT22;6414;49.570;6.060;2022-09-13T11:53:53;23.10;99.90
12700;DHT22;6414;49.570;6.060;2022-09-13T11:56:40;23.10;99.90
12700;DHT22;6414;49.570;6.060;2022-09-13T11:59:37;23.20;99.90
12700;DHT22;6414;49.570;6.060;2022-09-13T12:02:44;23.50;99.90
12700;DHT22;6414;49.570;6.060;2022-09-13T12:05:31;23.80;99.90
12700;DHT22;6414;49.570;6.060;2022-09-13T12:14:05;23.50;99.90
12700;DHT22;6414;49.570;6.060;2022-09-13T12:16:54;23.50;99.90
12700;DHT22;6414;49.570;6.060;2022-09-13T12:19:42;23.50;99.90
12700;DHT22;6414;49.570;6.060;2022-09-13T12:22:27;23.40;99.90
12700;DHT22;6414;49.570;6.060;2022-09-13T12:25:18;23.60;99.90
12700;DHT22;6414;49.570;6.060;2022-09-13T12:28:22;23.50;99.90
12700;DHT22;6414;49.570;6.060;2022-09-13T12:31:09;23.60;99.90
12700;DHT22;6414;49.570;6.060;2022-09-13T12:33:52;23.60;99.90
12700;DHT22;6414;49.570;6.060;2022-09-13T12:36:59;23.80;99.90
12700;DHT22;6414;49.570;6.060;2022-09-13T12:39:58;23.90;99.90
12700;DHT22;6414;49.570;6.060;2022-09-13T12:43:02;23.90;99.90
12700;DHT22;6414;49.570;6.060;2022-09-13T12:51:59;24.10;99.90
12700;DHT22;6414;49.570;6.060;2022-09-13T12:57:49;24.40;99.90
12700;DHT22;6414;49.570;6.060;2022-09-13T13:00:36;24.30;99.90
12700;DHT22;6414;49.570;6.060;2022-09-13T13:03:19;24.40;99.90
12700;DHT22;6414;49.570;6.060;2022-09-13T13:06:18;24.50;99.90
12700;DHT22;6414;49.570;6.060;2022-09-13T13:09:02;24.60;99.90
12700;DHT22;6414;49.570;6.060;2022-09-13T13:11:46;24.60;99.90
12700;DHT22;6414;49.570;6.060;2022-09-13T13:17:50;24.80;99.90
12700;DHT22;6414;49.570;6.060;2022-09-13T13:23:39;24.80;99.90
12700;DHT22;6414;49.570;6.060;2022-09-13T13:26:50;24.80;99.90
12700;DHT22;6414;49.570;6.060;2022-09-13T13:29:34;24.80;99.90
12700;DHT22;6414;49.570;6.060;2022-09-13T13:32:19;24.90;99.90
12700;DHT22;6414;49.570;6.060;2022-09-13T13:58:41;25.40;98.40
12700;DHT22;6414;49.570;6.060;2022-09-13T14:01:23;25.30;94.90
12700;DHT22;6414;49.570;6.060;2022-09-13T14:10:06;25.30;97.00
12700;DHT22;6414;49.570;6.060;2022-09-13T14:13:15;25.30;95.00
12700;DHT22;6414;49.570;6.060;2022-09-13T14:19:11;25.20;96.10
12700;DHT22;6414;49.570;6.060;2022-09-13T14:22:19;25.20;97.10
12700;DHT22;6414;49.570;6.060;2022-09-13T14:25:13;25.10;94.70
12700;DHT22;6414;49.570;6.060;2022-09-13T14:27:57;25.10;96.60
12700;DHT22;6414;49.570;6.060;2022-09-13T14:30:42;25.10;99.30
12700;DHT22;6414;49.570;6.060;2022-09-13T14:33:34;25.00;99.90
12700;DHT22;6414;49.570;6.060;2022-09-13T14:36:19;25.00;97.90
12700;DHT22;6414;49.570;6.060;2022-09-13T14:39:04;25.00;99.90
12700;DHT22;6414;49.570;6.060;2022-09-13T14:42:12;25.00;99.90
12700;DHT22;6414;49.570;6.060;2022-09-13T14:44:35;25.00;99.90
12700;DHT22;6414;49.570;6.060;2022-09-13T14:47:34;25.00;99.60
12700;DHT22;6414;49.570;6.060;2022-09-13T14:50:24;25.10;99.90
12700;DHT22;6414;49.570;6.060;2022-09-13T14:53:12;25.10;99.90
12700;DHT22;6414;49.570;6.060;2022-09-13T14:56:03;25.10;99.90
12700;DHT22;6414;49.570;6.060;2022-09-13T14:58:50;25.00;96.50
12700;DHT22;6414;49.570;6.060;2022-09-13T15:01:33;24.90;99.90
12700;DHT22;6414;49.570;6.060;2022-09-13T15:04:18;24.80;99.90
12700;DHT22;6414;49.570;6.060;2022-09-13T15:07:43;24.70;99.90
12700;DHT22;6414;49.570;6.060;2022-09-13T15:15:49;23.60;99.90
12700;DHT22;6414;49.570;6.060;2022-09-13T15:18:35;23.60;99.90
12700;DHT22;6414;49.570;6.060;2022-09-13T15:21:21;23.60;99.90
12700;DHT22;6414;49.570;6.060;2022-09-13T15:24:18;23.50;99.90
12700;DHT22;6414;49.570;6.060;2022-09-13T15:27:05;23.60;99.90
12700;DHT22;6414;49.570;6.060;2022-09-13T15:29:56;23.60;99.90
12700;DHT22;6414;49.570;6.060;2022-09-13T15:32:42;23.50;99.90
12700;DHT22;6414;49.570;6.060;2022-09-13T15:35:36;23.50;99.90
12700;DHT22;6414;49.570;6.060;2022-09-13T15:38:17;23.50;99.90
12700;DHT22;6414;49.570;6.060;2022-09-13T15:43:55;23.30;99.90
12700;DHT22;6414;49.570;6.060;2022-09-13T15:46:50;23.30;99.90
12700;DHT22;6414;49.570;6.060;2022-09-13T15:49:34;23.30;99.90
12700;DHT22;6414;49.570;6.060;2022-09-13T15:52:20;23.30;99.90
12700;DHT22;6414;49.570;6.060;2022-09-13T15:55:09;23.10;99.90
12700;DHT22;6414;49.570;6.060;2022-09-13T15:57:51;23.00;99.90
12700;DHT22;6414;49.570;6.060;2022-09-13T16:00:37;22.90;99.90
12700;DHT22;6414;49.570;6.060;2022-09-13T16:03:22;22.80;99.90
12700;DHT22;6414;49.570;6.060;2022-09-13T16:06:08;22.80;99.90
12700;DHT22;6414;49.570;6.060;2022-09-13T16:08:53;22.70;99.90
12700;DHT22;6414;49.570;6.060;2022-09-13T16:11:38;22.60;99.90
12700;DHT22;6414;49.570;6.060;2022-09-13T16:14:24;22.40;99.90
12700;DHT22;6414;49.570;6.060;2022-09-13T16:17:20;22.40;99.90
12700;DHT22;6414;49.570;6.060;2022-09-13T16:19:55;22.40;99.90
12700;DHT22;6414;49.570;6.060;2022-09-13T16:22:41;22.30;99.90
12700;DHT22;6414;49.570;6.060;2022-09-13T16:25:26;22.30;99.90
12700;DHT22;6414;49.570;6.060;2022-09-13T16:28:16;22.30;99.90
12700;DHT22;6414;49.570;6.060;2022-09-13T16:31:00;22.30;99.90
12700;DHT22;6414;49.570;6.060;2022-09-13T16:33:46;22.20;99.90
12700;DHT22;6414;49.570;6.060;2022-09-13T16:36:31;22.20;99.90
12700;DHT22;6414;49.570;6.060;2022-09-13T16:39:17;22.10;99.90
12700;DHT22;6414;49.570;6.060;2022-09-13T16:42:02;22.10;99.90
12700;DHT22;6414;49.570;6.060;2022-09-13T16:44:47;22.10;99.90
12700;DHT22;6414;49.570;6.060;2022-09-13T16:47:33;21.90;99.90
12700;DHT22;6414;49.570;6.060;2022-09-13T16:50:18;21.80;99.90
12700;DHT22;6414;49.570;6.060;2022-09-13T16:53:03;21.70;99.90
12700;DHT22;6414;49.570;6.060;2022-09-13T16:55:49;21.60;99.90
12700;DHT22;6414;49.570;6.060;2022-09-13T16:58:35;21.60;99.90
12700;DHT22;6414;49.570;6.060;2022-09-13T17:01:22;21.50;99.90
12700;DHT22;6414;49.570;6.060;2022-09-13T17:04:06;21.50;99.90
12700;DHT22;6414;49.570;6.060;2022-09-13T17:06:51;21.50;99.90
12700;DHT22;6414;49.570;6.060;2022-09-13T17:09:37;21.40;99.90
12700;DHT22;6414;49.570;6.060;2022-09-13T17:12:23;21.20;99.90
12700;DHT22;6414;49.570;6.060;2022-09-13T17:15:08;21.20;99.90
12700;DHT22;6414;49.570;6.060;2022-09-13T17:17:54;21.20;99.90
12700;DHT22;6414;49.570;6.060;2022-09-13T17:20:46;21.10;99.90
12700;DHT22;6414;49.570;6.060;2022-09-13T17:23:30;21.00;99.90
12700;DHT22;6414;49.570;6.060;2022-09-13T17:26:16;20.90;99.90
12700;DHT22;6414;49.570;6.060;2022-09-13T17:29:01;20.90;99.90
12700;DHT22;6414;49.570;6.060;2022-09-13T17:31:47;20.90;99.90
12700;DHT22;6414;49.570;6.060;2022-09-13T17:34:32;20.80;99.90
12700;DHT22;6414;49.570;6.060;2022-09-13T17:37:17;20.80;99.90
12700;DHT22;6414;49.570;6.060;2022-09-13T17:40:02;20.80;99.90
12700;DHT22;6414;49.570;6.060;2022-09-13T17:42:48;20.70;99.90
12700;DHT22;6414;49.570;6.060;2022-09-13T17:45:35;20.70;99.90
12700;DHT22;6414;49.570;6.060;2022-09-13T17:48:19;20.40;99.90
12700;DHT22;6414;49.570;6.060;2022-09-13T17:51:14;20.40;99.90
12700;DHT22;6414;49.570;6.060;2022-09-13T17:53:57;20.30;99.90
12700;DHT22;6414;49.570;6.060;2022-09-13T17:56:42;20.20;99.90
12700;DHT22;6414;49.570;6.060;2022-09-13T17:59:27;20.10;99.90
12700;DHT22;6414;49.570;6.060;2022-09-13T18:02:12;20.10;99.90
12700;DHT22;6414;49.570;6.060;2022-09-13T18:04:57;20.10;99.90
12700;DHT22;6414;49.570;6.060;2022-09-13T18:07:42;20.10;99.90
12700;DHT22;6414;49.570;6.060;2022-09-13T18:10:28;20.10;99.90
12700;DHT22;6414;49.570;6.060;2022-09-13T18:13:13;20.10;99.90
12700;DHT22;6414;49.570;6.060;2022-09-13T18:16:03;20.00;99.90
12700;DHT22;6414;49.570;6.060;2022-09-13T18:18:48;20.00;99.90
12700;DHT22;6414;49.570;6.060;2022-09-13T18:21:32;20.00;99.90
12700;DHT22;6414;49.570;6.060;2022-09-13T18:24:18;19.90;99.90
12700;DHT22;6414;49.570;6.060;2022-09-13T18:27:03;19.80;99.90
12700;DHT22;6414;49.570;6.060;2022-09-13T18:29:49;19.60;99.90
12700;DHT22;6414;49.570;6.060;2022-09-13T18:32:35;19.80;99.90
12700;DHT22;6414;49.570;6.060;2022-09-13T18:35:20;19.70;99.90
12700;DHT22;6414;49.570;6.060;2022-09-13T18:38:06;19.90;99.90
12700;DHT22;6414;49.570;6.060;2022-09-13T18:41:11;20.00;99.90
12700;DHT22;6414;49.570;6.060;2022-09-13T18:43:47;20.10;99.90
12700;DHT22;6414;49.570;6.060;2022-09-13T18:46:32;20.10;99.90
12700;DHT22;6414;49.570;6.060;2022-09-13T18:49:17;20.00;99.90
12700;DHT22;6414;49.570;6.060;2022-09-13T18:52:03;20.00;99.90
12700;DHT22;6414;49.570;6.060;2022-09-13T18:54:48;20.00;99.90
12700;DHT22;6414;49.570;6.060;2022-09-13T18:57:34;19.90;99.90
12700;DHT22;6414;49.570;6.060;2022-09-13T19:00:19;19.90;99.90
12700;DHT22;6414;49.570;6.060;2022-09-13T19:03:04;19.90;99.90
12700;DHT22;6414;49.570;6.060;2022-09-13T19:05:50;19.90;99.90
12700;DHT22;6414;49.570;6.060;2022-09-13T19:08:35;19.90;99.90
12700;DHT22;6414;49.570;6.060;2022-09-13T19:11:21;19.80;99.90
12700;DHT22;6414;49.570;6.060;2022-09-13T19:14:06;19.80;99.90
12700;DHT22;6414;49.570;6.060;2022-09-13T19:16:52;19.80;99.90
12700;DHT22;6414;49.570;6.060;2022-09-13T19:19:37;19.80;99.90
12700;DHT22;6414;49.570;6.060;2022-09-13T19:22:22;19.80;99.90
12700;DHT22;6414;49.570;6.060;2022-09-13T19:25:08;19.70;99.90
12700;DHT22;6414;49.570;6.060;2022-09-13T19:27:53;19.70;99.90
12700;DHT22;6414;49.570;6.060;2022-09-13T19:30:38;19.60;99.90
12700;DHT22;6414;49.570;6.060;2022-09-13T19:33:23;19.60;99.90
12700;DHT22;6414;49.570;6.060;2022-09-13T19:36:13;19.50;99.90
12700;DHT22;6414;49.570;6.060;2022-09-13T19:38:58;19.40;99.90
12700;DHT22;6414;49.570;6.060;2022-09-13T19:41:44;19.20;99.90
12700;DHT22;6414;49.570;6.060;2022-09-13T19:44:29;19.20;99.90
12700;DHT22;6414;49.570;6.060;2022-09-13T19:47:15;19.10;99.90
12700;DHT22;6414;49.570;6.060;2022-09-13T19:50:00;19.10;99.90
12700;DHT22;6414;49.570;6.060;2022-09-13T19:52:46;19.10;99.90
12700;DHT22;6414;49.570;6.060;2022-09-13T19:55:31;19.10;99.90
12700;DHT22;6414;49.570;6.060;2022-09-13T19:58:16;19.10;99.90
12700;DHT22;6414;49.570;6.060;2022-09-13T20:01:06;19.10;99.90
12700;DHT22;6414;49.570;6.060;2022-09-13T20:03:52;19.10;99.90
12700;DHT22;6414;49.570;6.060;2022-09-13T20:06:38;19.00;99.90
12700;DHT22;6414;49.570;6.060;2022-09-13T20:09:21;19.00;99.90
12700;DHT22;6414;49.570;6.060;2022-09-13T20:12:06;19.10;99.90
12700;DHT22;6414;49.570;6.060;2022-09-13T20:14:52;19.10;99.90
12700;DHT22;6414;49.570;6.060;2022-09-13T20:17:38;19.00;99.90
12700;DHT22;6414;49.570;6.060;2022-09-13T20:20:23;19.00;99.90